Time;durP1;ratioP1;P1;durP2;ratioP2;P2;SDS_P1;SDS_P2;PMS_P1;PMS_P2;Temp;Humidity;BMP_temperature;BMP_pressure;BME280_temperature;BME280_humidity;BME280_pressure;Samples;Min_cycle;Max_cycle;Signal;HPM_P1;HPM_P2
2022/03/13 00:00:36;;;;;;;24.33;12.68;;;;;;;9.91;59.99;101361.00;5072875;28;20025;-70
2022/03/13 00:03:03;;;;;;;25.05;11.50;;;;;;;9.91;59.75;101352.22;5069782;28;20040;-69
2022/03/13 00:05:29;;;;;;;25.20;12.27;;;;;;;9.93;60.63;101348.75;5072663;28;20024;-70
2022/03/13 00:07:56;;;;;;;21.73;10.30;;;;;;;9.95;59.98;101354.03;5072712;28;20481;-70
2022/03/13 00:10:27;;;;;;;22.27;10.13;;;;;;;9.98;59.80;101351.44;5073090;28;20029;-70
2022/03/13 00:12:54;;;;;;;21.70;9.98;;;;;;;10.00;59.98;101360.25;5072605;28;20076;-70
2022/03/13 00:15:41;;;;;;;22.38;10.25;;;;;;;10.03;59.65;101354.16;5072993;28;20406;-70
2022/03/13 00:18:11;;;;;;;22.80;10.27;;;;;;;9.99;60.42;101347.94;5069702;28;20031;-70
2022/03/13 00:20:36;;;;;;;21.50;9.80;;;;;;;9.99;60.20;101345.31;5072692;28;20031;-70
2022/03/13 00:23:01;;;;;;;21.90;9.68;;;;;;;9.97;60.40;101352.31;5072819;28;20319;-70
2022/03/13 00:25:27;;;;;;;22.77;10.60;;;;;;;9.95;60.60;101354.03;5072547;28;20450;-70
2022/03/13 00:27:53;;;;;;;22.20;9.95;;;;;;;9.97;60.08;101348.78;5072176;28;20085;-70
2022/03/13 00:30:18;;;;;;;23.27;10.90;;;;;;;9.93;60.93;101342.53;5072608;28;20111;-70
2022/03/13 00:32:44;;;;;;;22.90;10.52;;;;;;;9.89;60.72;101341.63;5072492;28;20020;-70
2022/03/13 00:35:11;;;;;;;22.38;10.80;;;;;;;9.88;60.13;101321.34;5072490;28;20076;-70
2022/03/13 00:37:36;;;;;;;23.25;10.60;;;;;;;9.88;60.35;101323.13;5072585;28;20095;-70
2022/03/13 00:40:02;;;;;;;22.67;10.15;;;;;;;9.88;60.23;101321.34;5074966;28;20120;-69
2022/03/13 00:42:28;;;;;;;22.88;10.70;;;;;;;9.85;60.61;101321.31;5076442;28;20100;-70
2022/03/13 00:44:53;;;;;;;22.50;10.68;;;;;;;9.80;61.26;101323.03;5076507;28;20111;-70
2022/03/13 00:47:20;;;;;;;24.08;10.98;;;;;;;9.75;61.05;101325.56;5076151;28;20017;-70
2022/03/13 00:49:47;;;;;;;22.35;10.88;;;;;;;9.68;61.45;101321.03;5076553;28;20029;-70
2022/03/13 00:52:12;;;;;;;22.15;10.38;;;;;;;9.62;61.93;101320.97;5076239;28;20021;-69
2022/03/13 00:54:38;;;;;;;22.58;10.80;;;;;;;9.58;61.83;101324.41;5076077;28;20020;-70
2022/03/13 00:57:03;;;;;;;23.33;11.32;;;;;;;9.55;61.76;101321.72;5076221;28;20021;-71
2022/03/13 00:59:28;;;;;;;24.10;12.60;;;;;;;9.52;62.02;101314.66;5076089;28;20028;-69
2022/03/13 01:01:54;;;;;;;23.67;11.55;;;;;;;9.50;62.22;101315.50;5075964;28;20574;-68
2022/03/13 01:04:19;;;;;;;23.90;11.38;;;;;;;9.45;62.45;101306.59;5076019;28;20371;-67
2022/03/13 01:06:46;;;;;;;23.10;12.18;;;;;;;9.41;62.98;101303.91;5075926;28;20033;-67
2022/03/13 01:09:11;;;;;;;24.67;12.93;;;;;;;9.39;62.89;101308.31;5076107;28;20032;-68
2022/03/13 01:11:37;;;;;;;25.08;12.23;;;;;;;9.39;62.96;101305.66;5076142;28;20025;-68
2022/03/13 01:14:02;;;;;;;23.23;12.35;;;;;;;9.31;62.93;101299.34;5075438;28;20059;-68
2022/03/13 01:16:35;;;;;;;23.88;11.80;;;;;;;9.27;63.64;101296.66;5075832;28;20032;-68
2022/03/13 01:19:01;;;;;;;24.85;12.00;;;;;;;9.21;64.25;101293.03;5072394;28;20024;-68
2022/03/13 01:21:28;;;;;;;23.85;12.65;;;;;;;9.11;64.54;101287.56;5071718;28;20462;-67
2022/03/13 01:23:59;;;;;;;22.92;11.50;;;;;;;9.03;64.53;101284.81;5075411;28;20467;-68
2022/03/13 01:26:25;;;;;;;23.85;11.93;;;;;;;8.97;65.42;101282.03;5075889;28;20379;-68
2022/03/13 01:28:51;;;;;;;24.00;12.23;;;;;;;8.90;65.75;101279.31;5075236;28;20033;-68
2022/03/13 01:31:22;;;;;;;24.75;12.50;;;;;;;8.88;66.12;101277.50;5075359;28;20032;-68
2022/03/13 01:33:47;;;;;;;23.65;12.23;;;;;;;8.82;66.30;101272.13;5075654;28;20027;-67
2022/03/13 01:36:13;;;;;;;24.50;12.38;;;;;;;8.77;66.54;101273.78;5075277;28;20124;-67
2022/03/13 01:38:39;;;;;;;24.05;12.50;;;;;;;8.76;66.50;101269.38;5075165;28;20463;-68
2022/03/13 01:41:04;;;;;;;23.88;11.40;;;;;;;8.73;67.47;101265.81;5075440;28;20074;-68
2022/03/13 01:43:31;;;;;;;23.42;12.02;;;;;;;8.70;67.65;101260.47;5075113;28;20425;-68
2022/03/13 01:45:58;;;;;;;22.15;10.90;;;;;;;8.64;68.34;101265.66;5075299;28;20025;-68
2022/03/13 01:48:24;;;;;;;23.50;11.25;;;;;;;8.59;68.40;101253.22;5075319;28;20478;-68
2022/03/13 01:50:50;;;;;;;23.73;11.43;;;;;;;8.54;69.28;101255.78;5075046;28;20025;-67
2022/03/13 01:53:15;;;;;;;23.27;11.13;;;;;;;8.48;69.54;101245.13;5074951;28;20016;-68
2022/03/13 01:55:41;;;;;;;23.73;10.95;;;;;;;8.40;69.79;101244.06;5075083;28;20039;-68
2022/03/13 01:58:06;;;;;;;22.90;10.75;;;;;;;8.38;70.31;101238.75;5074858;28;20111;-67
2022/03/13 02:00:32;;;;;;;22.75;11.48;;;;;;;8.36;71.37;101246.63;5075013;28;20035;-67
2022/03/13 02:02:58;;;;;;;24.02;11.02;;;;;;;8.31;70.84;101245.63;5071098;28;20104;-67
2022/03/13 02:05:30;;;;;;;22.50;10.95;;;;;;;8.27;71.44;101248.19;5074887;28;20111;-67
2022/03/13 02:07:56;;;;;;;22.90;10.90;;;;;;;8.20;72.35;101245.44;5074770;28;20059;-68
2022/03/13 02:10:21;;;;;;;23.17;10.73;;;;;;;8.14;72.94;101240.06;5074855;28;20052;-68
2022/03/13 02:12:47;;;;;;;22.50;10.82;;;;;;;8.13;74.02;101242.66;5074268;28;20072;-68
2022/03/13 02:15:12;;;;;;;22.88;10.93;;;;;;;8.06;74.68;101240.75;5074648;28;20062;-67
2022/03/13 02:17:38;;;;;;;23.23;11.13;;;;;;;8.01;75.84;101236.28;5074902;28;20025;-67
2022/03/13 02:20:04;;;;;;;23.85;11.45;;;;;;;8.09;76.13;101235.53;5074409;28;20029;-68
2022/03/13 02:22:30;;;;;;;22.17;10.93;;;;;;;8.10;76.22;101232.06;5074442;28;20039;-67
2022/03/13 02:24:56;;;;;;;24.90;12.25;;;;;;;8.13;76.14;101232.13;5074735;28;20028;-68
2022/03/13 02:27:25;;;;;;;24.02;12.05;;;;;;;8.17;75.29;101233.97;5074353;28;20029;-68
2022/03/13 02:29:51;;;;;;;23.67;11.73;;;;;;;8.19;75.57;101248.03;5074165;28;20479;-68
2022/03/13 02:32:17;;;;;;;24.67;12.43;;;;;;;8.19;74.99;101246.28;5074772;28;20110;-67
2022/03/13 02:34:43;;;;;;;24.95;12.60;;;;;;;8.23;74.87;101243.72;5074182;28;20020;-68
2022/03/13 02:37:35;;;;;;;24.30;12.82;;;;;;;8.25;74.42;101236.75;5074121;28;20032;-70
2022/03/13 02:40:02;;;;;;;24.42;12.82;;;;;;;8.28;74.54;101242.94;5069050;28;20435;-69
2022/03/13 02:42:27;;;;;;;25.83;13.15;;;;;;;8.30;74.10;101240.34;5070431;28;20029;-70
2022/03/13 02:44:53;;;;;;;24.65;13.25;;;;;;;8.28;74.40;101236.81;5074079;28;20463;-70
2022/03/13 02:47:18;;;;;;;24.80;13.70;;;;;;;8.31;73.87;101228.97;5073861;28;20528;-69
2022/03/13 02:49:43;;;;;;;25.73;13.85;;;;;;;8.34;74.05;101226.38;5074036;28;20021;-70
2022/03/13 02:52:09;;;;;;;25.30;13.38;;;;;;;8.38;73.92;101233.50;5074139;28;20024;-69
2022/03/13 02:54:34;;;;;;;25.35;13.18;;;;;;;8.37;74.37;101227.34;5074086;28;20016;-70
2022/03/13 02:57:00;;;;;;;25.73;13.90;;;;;;;8.36;74.62;101228.19;5073825;28;20020;-70
2022/03/13 02:59:25;;;;;;;26.60;13.55;;;;;;;8.37;75.24;101232.63;5073728;28;20024;-70
2022/03/13 03:01:51;;;;;;;25.67;13.57;;;;;;;8.34;74.81;101226.38;5073156;28;20476;-69
2022/03/13 03:04:21;;;;;;;25.23;13.82;;;;;;;8.35;75.97;101226.41;5073772;28;20033;-70
2022/03/13 03:07:01;;;;;;;26.85;14.43;;;;;;;8.34;76.03;101218.47;5073492;28;20544;-70
2022/03/13 03:09:29;;;;;;;26.13;14.27;;;;;;;8.35;76.59;101221.13;5073651;28;20115;-70
2022/03/13 03:11:57;;;;;;;26.52;14.90;;;;;;;8.36;76.78;101220.28;5073694;28;20020;-70
2022/03/13 03:14:22;;;;;;;26.08;14.27;;;;;;;8.36;76.63;101214.16;5073865;28;20025;-68
2022/03/13 03:16:48;;;;;;;27.08;14.88;;;;;;;8.35;77.47;101213.25;5073386;28;20032;-67
2022/03/13 03:19:13;;;;;;;27.50;15.20;;;;;;;8.34;78.82;101211.47;5073450;28;20029;-67
2022/03/13 03:21:39;;;;;;;26.63;15.32;;;;;;;8.31;78.38;101206.13;5073163;28;20043;-67
2022/03/13 03:24:17;;;;;;;26.80;15.80;;;;;;;8.29;79.63;101213.13;5073486;28;20025;-67
2022/03/13 03:26:42;;;;;;;26.98;15.48;;;;;;;8.26;80.34;101207.81;5073166;28;20043;-68
2022/03/13 03:29:08;;;;;;;26.63;15.40;;;;;;;8.24;80.60;101209.50;5073612;28;20021;-68
2022/03/13 03:31:39;;;;;;;28.70;16.40;;;;;;;8.22;81.03;101205.97;5073393;28;20383;-68
2022/03/13 03:34:08;;;;;;;27.52;16.23;;;;;;;8.17;83.59;101205.00;5073242;28;20033;-67
2022/03/13 03:36:39;;;;;;;27.67;16.75;;;;;;;8.12;82.89;101201.38;5073447;28;20025;-68
2022/03/13 03:39:06;;;;;;;28.00;16.42;;;;;;;8.10;84.89;101200.47;5073060;28;20378;-68
2022/03/13 03:41:32;;;;;;;29.20;17.30;;;;;;;8.08;86.47;101202.16;5073160;28;20035;-67
2022/03/13 03:43:57;;;;;;;28.30;17.15;;;;;;;8.05;88.14;101207.38;5073135;28;20032;-68
2022/03/13 03:46:24;;;;;;;28.35;16.80;;;;;;;8.05;87.36;101208.25;5072862;28;20056;-67
2022/03/13 03:48:49;;;;;;;28.88;17.80;;;;;;;8.02;87.07;101209.09;5072867;28;20588;-67
2022/03/13 03:51:15;;;;;;;27.55;17.20;;;;;;;8.00;88.14;101202.88;5071634;28;20115;-67
2022/03/13 03:53:40;;;;;;;28.40;17.38;;;;;;;8.01;88.04;101206.44;5072627;28;20112;-67
2022/03/13 03:56:05;;;;;;;29.92;18.45;;;;;;;7.99;89.01;101208.13;5072775;28;20430;-67
2022/03/13 03:58:31;;;;;;;28.50;17.73;;;;;;;7.95;89.96;101207.19;5072747;28;20070;-67
2022/03/13 04:00:56;;;;;;;30.25;18.77;;;;;;;7.93;91.78;101203.63;5072831;28;20098;-69
2022/03/13 04:03:21;;;;;;;30.70;19.35;;;;;;;7.93;93.07;101198.34;5072544;28;20028;-67
2022/03/13 04:05:47;;;;;;;30.23;19.33;;;;;;;7.89;91.96;101196.50;5073097;28;20032;-67
2022/03/13 04:08:12;;;;;;;30.65;19.63;;;;;;;7.83;92.39;101196.38;5072600;28;20049;-68
2022/03/13 04:10:38;;;;;;;30.50;19.33;;;;;;;7.84;91.50;101195.53;5072311;28;20535;-67
2022/03/13 04:13:03;;;;;;;31.77;20.33;;;;;;;7.82;91.00;101190.25;5072544;28;20037;-69
2022/03/13 04:15:29;;;;;;;31.23;20.73;;;;;;;7.79;90.63;101195.44;5071292;28;20078;-68
2022/03/13 04:17:55;;;;;;;32.10;20.35;;;;;;;7.79;89.65;101187.53;5072834;28;20032;-70
2022/03/13 04:20:21;;;;;;;32.83;21.90;;;;;;;7.79;87.94;101191.91;5072819;28;20020;-70
2022/03/13 04:22:47;;;;;;;33.85;22.27;;;;;;;7.78;86.89;101191.03;5072443;28;20383;-70
2022/03/13 04:25:12;;;;;;;32.95;22.08;;;;;;;7.77;86.98;101191.00;5072769;28;20081;-69
2022/03/13 04:27:38;;;;;;;33.67;22.15;;;;;;;7.77;84.93;101193.63;5072328;28;20028;-69
2022/03/13 04:30:04;;;;;;;34.63;22.42;;;;;;;7.76;84.82;101197.09;5072363;28;20032;-70
2022/03/13 04:32:30;;;;;;;34.13;22.85;;;;;;;7.75;85.05;101200.63;5068661;28;20029;-70
2022/03/13 04:34:55;;;;;;;34.03;23.25;;;;;;;7.72;84.74;101201.44;5072506;28;20150;-70
2022/03/13 04:37:22;;;;;;;35.90;23.15;;;;;;;7.70;85.03;101196.97;5072403;28;20103;-69
2022/03/13 04:39:51;;;;;;;36.03;24.25;;;;;;;7.66;87.59;101199.56;5072227;28;20043;-70
2022/03/13 04:42:17;;;;;;;34.05;24.30;;;;;;;7.53;90.94;101196.59;5072250;28;20029;-69
2022/03/13 04:44:43;;;;;;;35.03;24.58;;;;;;;7.44;91.42;101195.56;5072294;28;20041;-69
2022/03/13 04:47:09;;;;;;;33.97;23.38;;;;;;;7.38;94.37;101189.25;5072375;28;20043;-69
2022/03/13 04:49:34;;;;;;;36.13;24.77;;;;;;;7.26;95.75;101188.09;5072300;28;20475;-69
2022/03/13 04:51:59;;;;;;;36.58;25.33;;;;;;;7.18;98.85;101199.31;5072262;28;20021;-70
2022/03/13 04:54:24;;;;;;;37.47;26.13;;;;;;;7.11;99.73;101196.53;5072294;28;20078;-69
2022/03/13 04:56:50;;;;;;;35.30;24.05;;;;;;;7.09;100.00;101190.38;5071979;28;20033;-69
2022/03/13 04:59:15;;;;;;;36.28;25.95;;;;;;;7.07;100.00;101199.06;5071971;28;20056;-69
2022/03/13 05:01:41;;;;;;;37.33;25.88;;;;;;;7.05;100.00;101198.09;5072298;28;20120;-69
2022/03/13 05:04:07;;;;;;;36.45;26.10;;;;;;;7.03;100.00;101198.06;5072084;28;20098;-69
2022/03/13 05:06:43;;;;;;;37.05;25.85;;;;;;;6.98;100.00;101186.56;5072350;28;20012;-69
2022/03/13 05:09:08;;;;;;;36.92;25.58;;;;;;;6.95;100.00;101190.00;5069580;28;20356;-69
2022/03/13 05:11:34;;;;;;;39.63;25.92;;;;;;;6.88;100.00;101184.56;5072224;28;20121;-69
2022/03/13 05:13:59;;;;;;;37.20;25.50;;;;;;;6.80;100.00;101184.34;5067677;28;20044;-69
2022/03/13 05:16:24;;;;;;;37.67;25.75;;;;;;;6.85;100.00;101182.75;5070826;28;20090;-69
2022/03/13 05:18:50;;;;;;;36.15;24.95;;;;;;;6.88;100.00;101185.44;5071740;28;20025;-69
2022/03/13 05:21:17;;;;;;;36.58;26.02;;;;;;;6.87;100.00;101178.41;5071848;28;20025;-68
2022/03/13 05:23:43;;;;;;;35.75;25.75;;;;;;;6.85;100.00;101180.13;5071980;28;20025;-69
2022/03/13 05:26:08;;;;;;;38.10;26.30;;;;;;;6.84;100.00;101180.97;5074450;28;20540;-69
2022/03/13 05:28:35;;;;;;;36.97;27.15;;;;;;;6.83;100.00;101186.19;5075545;28;20035;-68
2022/03/13 05:31:01;;;;;;;37.05;25.92;;;;;;;6.83;100.00;101180.94;5071714;28;20024;-69
2022/03/13 05:33:27;;;;;;;35.22;24.63;;;;;;;6.87;100.00;101190.66;5075461;28;20031;-69
2022/03/13 05:35:53;;;;;;;36.38;24.08;;;;;;;6.90;100.00;101189.03;5075530;28;20024;-69
2022/03/13 05:38:18;;;;;;;33.17;22.80;;;;;;;6.97;96.63;101195.31;5075425;28;20033;-69
2022/03/13 05:40:44;;;;;;;33.92;23.33;;;;;;;7.00;95.72;101189.25;5074009;28;20044;-69
2022/03/13 05:43:11;;;;;;;35.00;23.65;;;;;;;6.98;97.67;101182.19;5075572;28;20024;-70
2022/03/13 05:45:38;;;;;;;33.90;23.25;;;;;;;6.96;95.94;101183.91;5075395;28;20035;-69
2022/03/13 05:48:10;;;;;;;33.63;22.58;;;;;;;6.96;97.54;101194.44;5073912;28;20037;-69
2022/03/13 05:50:36;;;;;;;34.58;23.75;;;;;;;6.91;97.87;101185.53;5071687;28;20498;-70
2022/03/13 05:53:03;;;;;;;35.05;22.65;;;;;;;6.97;94.63;101190.94;5075264;28;20498;-69
2022/03/13 05:55:29;;;;;;;33.88;22.77;;;;;;;6.98;94.41;101195.34;5074786;28;20033;-69
2022/03/13 05:57:55;;;;;;;33.47;21.85;;;;;;;7.00;92.83;101199.75;5075092;28;20036;-70
2022/03/13 06:00:22;;;;;;;32.30;22.73;;;;;;;7.03;91.09;101199.81;5074902;28;20486;-70
2022/03/13 06:02:48;;;;;;;32.55;21.88;;;;;;;7.03;86.99;101199.81;5075101;28;20029;-70
2022/03/13 06:05:16;;;;;;;34.38;21.75;;;;;;;7.04;86.69;101202.50;5075077;28;20513;-69
2022/03/13 06:07:41;;;;;;;33.30;22.00;;;;;;;7.04;84.38;101193.72;5075214;28;20017;-70
2022/03/13 06:10:08;;;;;;;32.55;20.98;;;;;;;7.03;84.03;101198.06;5068060;28;20020;-69
2022/03/13 06:12:34;;;;;;;33.85;22.92;;;;;;;7.04;83.83;101201.63;5065629;28;20416;-68
2022/03/13 06:15:01;;;;;;;32.28;21.33;;;;;;;7.06;81.50;101195.56;5064951;28;20453;-68
2022/03/13 06:17:27;;;;;;;33.85;21.88;;;;;;;7.07;81.91;101204.31;5065179;28;20383;-69
2022/03/13 06:19:55;;;;;;;32.40;21.00;;;;;;;7.06;82.28;101195.56;5066450;28;20090;-69
2022/03/13 06:22:21;;;;;;;33.55;20.88;;;;;;;7.06;81.87;101203.44;5066483;28;20044;-72
2022/03/13 06:24:46;;;;;;;31.92;21.00;;;;;;;7.08;81.30;101198.22;5064683;28;20062;-71
2022/03/13 06:27:12;;;;;;;33.53;21.38;;;;;;;7.06;80.92;101198.19;5065945;28;20098;-70
2022/03/13 06:29:39;;;;;;;32.03;21.40;;;;;;;7.07;80.96;101196.44;5065679;28;21341;-72
2022/03/13 06:32:05;;;;;;;32.60;21.38;;;;;;;7.06;81.66;101210.41;5065883;28;20025;-71
2022/03/13 06:34:31;;;;;;;32.40;21.48;;;;;;;7.05;80.70;101211.25;5063977;28;20037;-70
2022/03/13 06:36:56;;;;;;;32.42;21.55;;;;;;;7.01;82.67;101196.28;5065433;28;20097;-70
2022/03/13 06:39:22;;;;;;;32.53;21.50;;;;;;;7.05;81.37;101203.38;5065592;28;20094;-70
2022/03/13 06:41:48;;;;;;;31.75;21.23;;;;;;;7.07;80.56;101213.06;5066421;28;20032;-72
2022/03/13 06:44:13;;;;;;;32.22;20.63;;;;;;;7.12;79.43;101207.91;5064471;28;20028;-70
2022/03/13 06:46:39;;;;;;;34.65;21.10;;;;;;;7.16;78.90;101191.38;5063474;28;20466;-73
2022/03/13 06:49:05;;;;;;;32.40;21.00;;;;;;;7.22;78.26;101198.53;5065131;28;20112;-71
2022/03/13 06:51:31;;;;;;;31.52;20.50;;;;;;;7.27;77.06;101197.78;5065648;28;20033;-73
2022/03/13 06:53:57;;;;;;;32.55;21.05;;;;;;;7.33;79.20;101195.28;5065719;28;20035;-70
2022/03/13 06:56:22;;;;;;;33.03;20.63;;;;;;;7.35;77.46;101197.06;5063685;28;20025;-70
2022/03/13 06:58:47;;;;;;;30.95;20.38;;;;;;;7.39;75.13;101201.56;5065344;28;20039;-73
2022/03/13 07:01:13;;;;;;;30.48;19.92;;;;;;;7.41;77.26;101207.72;5064959;28;20035;-72
2022/03/13 07:03:39;;;;;;;32.90;20.30;;;;;;;7.42;74.12;101204.25;5064889;28;20859;-72
2022/03/13 07:06:05;;;;;;;32.58;21.10;;;;;;;7.45;76.43;101206.97;5063717;28;20036;-72
2022/03/13 07:08:35;;;;;;;31.38;20.60;;;;;;;7.45;75.93;101204.31;5064613;28;20017;-70
2022/03/13 07:11:01;;;;;;;30.85;19.98;;;;;;;7.50;77.23;101200.06;5064433;28;20029;-70
2022/03/13 07:13:33;;;;;;;30.08;19.73;;;;;;;7.51;74.10;101199.19;5063235;28;20143;-67
2022/03/13 07:16:03;;;;;;;32.00;19.98;;;;;;;7.56;73.63;101201.94;5069735;28;20107;-67
2022/03/13 07:18:32;;;;;;;31.13;20.40;;;;;;;7.61;73.08;101205.56;5071085;28;20032;-66
2022/03/13 07:20:57;;;;;;;31.63;20.15;;;;;;;7.62;74.65;101200.34;5071580;28;20039;-66
2022/03/13 07:23:23;;;;;;;34.47;20.90;;;;;;;7.65;74.09;101197.75;5071065;28;20021;-67
2022/03/13 07:25:49;;;;;;;30.13;19.52;;;;;;;7.65;72.48;101197.75;5070769;28;20037;-67
2022/03/13 07:28:14;;;;;;;31.88;20.67;;;;;;;7.67;72.91;101193.44;5070469;28;20052;-66
2022/03/13 07:30:40;;;;;;;30.50;20.00;;;;;;;7.70;74.31;101189.09;5069614;28;20048;-65
2022/03/13 07:33:05;;;;;;;30.65;19.95;;;;;;;7.72;75.92;101193.53;5065843;28;20029;-75
2022/03/13 07:35:30;;;;;;;32.42;21.25;;;;;;;7.75;74.98;101192.72;5070395;28;20052;-72
2022/03/13 07:37:56;;;;;;;31.75;21.15;;;;;;;7.85;75.14;101199.94;5070224;28;20532;-72
2022/03/13 07:40:21;;;;;;;32.45;20.60;;;;;;;7.91;75.09;101204.47;5070205;28;20039;-70
2022/03/13 07:42:47;;;;;;;33.92;20.95;;;;;;;7.97;73.39;101188.78;5070970;28;20399;-72
2022/03/13 07:45:13;;;;;;;31.17;19.77;;;;;;;8.06;72.69;101183.69;5069266;28;20085;-70
2022/03/13 07:47:38;;;;;;;32.60;20.92;;;;;;;8.13;71.73;101190.00;5070572;28;20032;-71
2022/03/13 07:50:04;;;;;;;31.08;20.42;;;;;;;8.26;71.36;101185.84;5070639;28;20023;-70
2022/03/13 07:52:30;;;;;;;32.95;21.60;;;;;;;8.29;71.61;101176.25;5070134;28;20017;-70
2022/03/13 07:54:55;;;;;;;30.52;20.17;;;;;;;8.31;70.48;101192.06;5070656;28;20027;-70
2022/03/13 07:57:20;;;;;;;32.70;20.88;;;;;;;8.33;69.98;101191.25;5070083;28;20399;-69
2022/03/13 07:59:47;;;;;;;30.42;19.52;;;;;;;8.40;69.56;101188.72;5070598;28;20475;-70
2022/03/13 08:02:16;;;;;;;32.42;21.20;;;;;;;8.44;69.68;101191.47;5070971;28;20085;-70
2022/03/13 08:04:42;;;;;;;30.95;19.98;;;;;;;8.59;69.08;101190.91;5070089;28;20032;-70
2022/03/13 08:07:07;;;;;;;30.30;19.67;;;;;;;8.69;68.15;101186.66;5070354;28;20025;-69
2022/03/13 08:09:34;;;;;;;31.45;19.58;;;;;;;8.80;66.00;101194.78;5070388;28;20111;-70
2022/03/13 08:12:00;;;;;;;31.38;19.73;;;;;;;8.94;68.08;101187.97;5070393;28;20037;-69
2022/03/13 08:14:26;;;;;;;31.63;20.77;;;;;;;9.02;66.25;101193.38;5070165;28;20028;-70
2022/03/13 08:16:52;;;;;;;32.03;20.23;;;;;;;9.14;65.39;101195.31;5072159;28;20035;-70
2022/03/13 08:19:18;;;;;;;30.67;19.67;;;;;;;9.30;66.98;101192.03;5068148;28;20073;-70
2022/03/13 08:21:43;;;;;;;32.22;20.52;;;;;;;9.35;65.80;101193.00;5072662;28;20024;-69
2022/03/13 08:24:09;;;;;;;31.63;21.00;;;;;;;9.39;65.01;101188.66;5072708;28;20027;-69
2022/03/13 08:26:38;;;;;;;31.15;20.48;;;;;;;9.49;66.36;101187.03;5072347;28;20357;-68
2022/03/13 08:29:05;;;;;;;31.85;21.00;;;;;;;9.53;66.06;101181.81;5072421;28;20059;-69
2022/03/13 08:31:32;;;;;;;31.02;20.38;;;;;;;9.56;64.85;101187.13;5072493;28;20016;-69
2022/03/13 08:33:58;;;;;;;30.88;20.88;;;;;;;9.75;65.84;101190.91;5072238;28;20028;-69
2022/03/13 08:36:24;;;;;;;31.52;20.27;;;;;;;9.94;64.32;101185.88;5072460;28;20117;-67
2022/03/13 08:38:49;;;;;;;31.70;20.60;;;;;;;10.04;61.95;101190.41;5072453;28;20039;-70
2022/03/13 08:41:14;;;;;;;31.00;20.70;;;;;;;10.18;61.74;101184.38;5071040;28;20017;-69
2022/03/13 08:43:40;;;;;;;30.50;19.83;;;;;;;10.38;61.52;101188.19;5066567;28;20028;-72
2022/03/13 08:46:05;;;;;;;31.73;20.00;;;;;;;10.48;60.98;101199.72;5071941;28;20020;-68
2022/03/13 08:48:31;;;;;;;31.42;20.23;;;;;;;10.43;58.33;101189.13;5072142;28;20086;-72
2022/03/13 08:50:57;;;;;;;31.88;20.92;;;;;;;10.51;59.20;101188.31;5072281;28;20020;-70
2022/03/13 08:53:23;;;;;;;32.22;20.77;;;;;;;10.68;59.34;101183.19;5072019;28;20029;-68
2022/03/13 08:55:48;;;;;;;30.00;19.98;;;;;;;10.91;59.35;101186.03;5072109;28;20094;-68
2022/03/13 08:58:14;;;;;;;31.73;19.75;;;;;;;10.91;56.93;101183.41;5072045;28;20028;-69
2022/03/13 09:00:41;;;;;;;30.80;20.10;;;;;;;11.04;59.62;101173.78;5074354;28;20029;-69
2022/03/13 09:03:07;;;;;;;31.42;20.55;;;;;;;11.18;56.19;101174.78;5073825;28;20024;-66
2022/03/13 09:05:32;;;;;;;30.52;19.00;;;;;;;11.41;55.90;101169.63;5074595;28;20036;-66
2022/03/13 09:07:58;;;;;;;31.48;19.33;;;;;;;11.69;54.93;101169.78;5075807;28;20047;-67
2022/03/13 09:10:23;;;;;;;30.63;19.13;;;;;;;12.13;54.16;101173.53;5074480;28;20020;-66
2022/03/13 09:12:49;;;;;;;30.13;19.55;;;;;;;12.44;52.29;101176.28;5075591;28;20043;-69
2022/03/13 09:15:14;;;;;;;31.20;19.95;;;;;;;12.82;51.67;101171.00;5075848;28;20111;-71
2022/03/13 09:17:39;;;;;;;29.50;19.27;;;;;;;13.20;50.82;101172.75;5075771;28;20474;-71
2022/03/13 09:20:06;;;;;;;29.90;19.20;;;;;;;13.37;48.47;101170.09;5075778;28;20409;-71
2022/03/13 09:22:32;;;;;;;29.88;19.20;;;;;;;13.35;48.95;101165.66;5075380;28;20029;-71
2022/03/13 09:24:58;;;;;;;29.02;19.08;;;;;;;13.22;50.36;101167.44;5075757;28;20467;-71
2022/03/13 09:27:28;;;;;;;31.83;18.98;;;;;;;13.31;50.09;101174.50;5071563;28;20066;-71
2022/03/13 09:29:54;;;;;;;29.02;18.92;;;;;;;13.47;48.32;101163.00;5071372;28;20028;-71
2022/03/13 09:32:24;;;;;;;29.42;19.20;;;;;;;13.74;48.40;101162.00;5075507;28;20548;-72
2022/03/13 09:34:50;;;;;;;29.48;18.10;;;;;;;13.99;46.95;101158.38;5075434;28;20525;-69
2022/03/13 09:37:16;;;;;;;29.42;19.38;;;;;;;14.03;47.14;101173.44;5075301;28;20021;-71
2022/03/13 09:39:42;;;;;;;29.50;19.20;;;;;;;14.16;47.36;101172.47;5075323;28;20486;-71
2022/03/13 09:42:07;;;;;;;29.67;18.35;;;;;;;14.35;47.60;101162.59;5075306;28;20032;-71
2022/03/13 09:44:33;;;;;;;28.98;19.08;;;;;;;14.96;46.63;101169.28;5074975;28;20032;-71
2022/03/13 09:46:59;;;;;;;28.13;17.73;;;;;;;15.48;44.41;101169.69;5074207;28;20025;-71
2022/03/13 09:49:24;;;;;;;29.13;17.90;;;;;;;15.96;43.17;101159.38;5075086;28;20356;-72
2022/03/13 09:51:51;;;;;;;28.02;17.25;;;;;;;16.21;42.94;101164.38;5074971;28;20454;-72
2022/03/13 09:54:16;;;;;;;27.65;17.48;;;;;;;16.68;41.93;101164.56;5074875;28;20020;-72
2022/03/13 09:56:42;;;;;;;28.48;17.05;;;;;;;17.08;41.20;101156.81;5074607;28;20043;-73
2022/03/13 09:59:07;;;;;;;28.45;16.50;;;;;;;17.13;40.20;101155.84;5074970;28;20055;-68
2022/03/13 10:01:33;;;;;;;28.10;17.00;;;;;;;17.34;40.03;101162.56;5074985;28;20020;-70
2022/03/13 10:03:59;;;;;;;27.23;16.63;;;;;;;17.33;40.18;101159.03;5074949;28;20072;-66
2022/03/13 10:06:26;;;;;;;26.58;15.82;;;;;;;17.38;38.84;101158.94;5074632;28;20472;-66
2022/03/13 10:08:51;;;;;;;27.23;15.75;;;;;;;17.45;38.68;101162.38;5073536;28;20036;-66
2022/03/13 10:11:33;;;;;;;26.58;15.18;;;;;;;17.63;40.23;101155.78;5074494;28;20028;-69
2022/03/13 10:14:06;;;;;;;27.95;16.10;;;;;;;17.60;39.36;101156.72;5074328;28;20052;-69
2022/03/13 10:16:37;;;;;;;25.90;14.63;;;;;;;18.00;39.57;101155.94;5074686;28;20024;-68
2022/03/13 10:19:16;;;;;;;27.52;14.25;;;;;;;18.43;39.42;101154.97;5074491;28;20054;-69
2022/03/13 10:22:02;;;;;;;25.05;14.95;;;;;;;18.53;37.34;101147.59;5071632;28;20036;-67
2022/03/13 10:24:27;;;;;;;26.13;15.60;;;;;;;18.54;37.90;101145.81;5073131;28;20028;-67
2022/03/13 10:27:15;;;;;;;24.10;13.10;;;;;;;19.14;35.99;101128.25;5074414;28;20391;-66
2022/03/13 10:29:42;;;;;;;24.98;14.05;;;;;;;18.60;37.70;101141.19;5071385;28;20035;-69
2022/03/13 10:32:09;;;;;;;24.58;13.55;;;;;;;19.03;36.55;101133.88;5074390;28;20056;-69
2022/03/13 10:34:36;;;;;;;25.88;15.18;;;;;;;19.22;35.84;101136.06;5074654;28;20024;-69
2022/03/13 10:37:02;;;;;;;24.42;14.40;;;;;;;19.88;35.27;101125.31;5073950;28;20075;-68
2022/03/13 10:39:29;;;;;;;24.15;13.95;;;;;;;20.32;33.07;101121.25;5072671;28;20109;-66
2022/03/13 10:42:01;;;;;;;24.88;14.55;;;;;;;20.35;33.28;101129.19;5074575;28;20023;-67
2022/03/13 10:44:28;;;;;;;25.55;14.45;;;;;;;20.43;34.50;101134.34;5072934;28;20353;-71
2022/03/13 10:46:57;;;;;;;24.85;14.10;;;;;;;20.72;33.11;101124.47;5069797;28;20031;-68
2022/03/13 10:49:36;;;;;;;24.55;13.77;;;;;;;21.42;32.43;101120.22;5072718;28;20023;-70
2022/03/13 10:52:16;;;;;;;25.23;14.90;;;;;;;21.17;32.19;101118.47;5071916;28;20020;-75
2022/03/13 10:54:46;;;;;;;23.85;13.75;;;;;;;20.67;33.06;101123.75;5073803;28;20032;-69
2022/03/13 10:57:12;;;;;;;25.63;13.88;;;;;;;20.65;32.95;101117.50;5073754;28;20028;-66
2022/03/13 10:59:40;;;;;;;24.38;13.13;;;;;;;20.03;33.88;101114.97;5073593;28;20032;-68
2022/03/13 11:02:16;;;;;;;24.17;13.88;;;;;;;19.30;35.11;101115.31;5073741;28;20043;-68
2022/03/13 11:04:55;;;;;;;25.45;13.98;;;;;;;19.48;35.75;101112.13;5070212;28;20024;-69
2022/03/13 11:07:22;;;;;;;23.73;13.15;;;;;;;20.39;33.61;101113.88;5073786;28;20033;-68
2022/03/13 11:09:48;;;;;;;24.50;13.82;;;;;;;20.57;32.98;101108.84;5073405;28;20028;-69
2022/03/13 11:12:19;;;;;;;25.88;15.52;;;;;;;20.73;32.25;101110.97;5073456;28;20052;-66